Time;durP1;ratioP1;P1;durP2;ratioP2;P2;SDS_P1;SDS_P2;PMS_P1;PMS_P2;Temp;Humidity;BMP_temperature;BMP_pressure;BME280_temperature;BME280_humidity;BME280_pressure;Samples;Min_cycle;Max_cycle;Signal;HPM_P1;HPM_P2
2022/05/20 00:01:10;;;;;;;4.47;2.30;;;;;;;17.66;57.10;101175.56;5014479;28;20054;-73
2022/05/20 00:03:38;;;;;;;4.05;2.08;;;;;;;17.66;57.22;101180.97;5014493;28;20501;-73
2022/05/20 00:06:05;;;;;;;3.97;1.80;;;;;;;17.65;56.91;101191.00;5014403;28;20502;-73
2022/05/20 00:08:32;;;;;;;3.38;2.10;;;;;;;17.55;57.80;101193.22;5014593;28;20060;-73
2022/05/20 00:10:58;;;;;;;3.28;1.83;;;;;;;17.60;57.36;101193.44;5014324;28;20046;-74
2022/05/20 00:13:27;;;;;;;4.82;2.10;;;;;;;17.54;57.39;101202.34;5014748;28;20132;-73
2022/05/20 00:15:54;;;;;;;8.35;2.13;;;;;;;17.42;58.12;101204.75;5014281;28;20050;-72
2022/05/20 00:18:21;;;;;;;5.88;2.00;;;;;;;17.50;57.63;101210.03;5014052;28;20053;-73
2022/05/20 00:20:47;;;;;;;6.35;2.58;;;;;;;17.42;58.01;101206.63;4996828;28;20089;-73
2022/05/20 00:23:14;;;;;;;5.00;2.17;;;;;;;17.40;58.33;101222.25;5014790;28;20140;-73
2022/05/20 00:25:46;;;;;;;5.10;2.17;;;;;;;17.39;58.60;101198.88;5014529;28;20085;-73
2022/05/20 00:28:23;;;;;;;4.05;2.33;;;;;;;17.33;58.55;101204.00;5014907;28;20050;-73
2022/05/20 00:30:53;;;;;;;2.95;1.98;;;;;;;17.36;58.67;101216.38;5014519;28;20133;-73
2022/05/20 00:33:20;;;;;;;6.85;2.63;;;;;;;17.39;58.50;101204.31;5014727;28;20132;-73
2022/05/20 00:35:47;;;;;;;4.57;2.42;;;;;;;17.35;58.83;101203.84;5014771;28;20046;-73
2022/05/20 00:38:14;;;;;;;4.68;2.15;;;;;;;17.25;59.31;101211.44;5014333;28;20080;-73
2022/05/20 00:40:42;;;;;;;4.68;2.35;;;;;;;17.22;59.13;101219.94;5014927;28;20141;-72
2022/05/20 00:43:42;;;;;;;5.00;2.10;;;;;;;17.14;59.68;101212.78;5015687;28;20100;-73
2022/05/20 00:46:17;;;;;;;4.45;2.10;;;;;;;17.07;60.35;101218.13;5014239;28;20119;-73
2022/05/20 00:48:44;;;;;;;9.70;2.08;;;;;;;17.03;60.52;101211.41;5018522;28;20081;-73
2022/05/20 00:51:20;;;;;;;5.47;2.08;;;;;;;17.09;60.08;101213.38;5018704;28;20140;-73
2022/05/20 00:53:57;;;;;;;9.98;2.17;;;;;;;16.96;60.83;101221.34;5001137;28;20108;-73
2022/05/20 00:56:33;;;;;;;7.68;2.33;;;;;;;16.97;60.64;101223.00;5018372;28;20050;-73
2022/05/20 00:58:59;;;;;;;3.80;2.30;;;;;;;16.92;60.99;101219.19;5018384;28;20132;-72
2022/05/20 01:01:28;;;;;;;3.28;2.33;;;;;;;16.84;61.20;101223.69;5018305;28;20092;-73
2022/05/20 01:03:56;;;;;;;3.53;2.08;;;;;;;16.83;61.54;101232.00;5017772;28;20050;-73
2022/05/20 01:07:12;;;;;;;5.65;2.25;;;;;;;16.80;61.63;101243.22;5017860;28;20057;-72
2022/05/20 01:09:39;;;;;;;4.78;2.40;;;;;;;16.72;62.22;101235.22;5018079;28;20137;-73
2022/05/20 01:12:07;;;;;;;5.65;2.40;;;;;;;16.62;62.34;101241.75;5018048;28;20537;-73
2022/05/20 01:14:34;;;;;;;3.13;2.10;;;;;;;16.70;62.10;101248.94;5018625;28;20050;-73
2022/05/20 01:17:01;;;;;;;6.93;2.25;;;;;;;16.62;62.56;101241.75;5017640;28;20054;-72
2022/05/20 01:19:36;;;;;;;6.90;2.63;;;;;;;16.61;62.56;101244.66;5017645;28;20045;-73
2022/05/20 01:22:05;;;;;;;3.75;2.22;;;;;;;16.62;62.57;101246.31;5017131;28;20083;-73
2022/05/20 01:24:32;;;;;;;7.18;2.42;;;;;;;16.48;62.85;101245.28;5016756;28;20145;-73
2022/05/20 01:26:59;;;;;;;5.82;2.75;;;;;;;16.48;63.21;101260.69;5016658;28;20140;-73
2022/05/20 01:29:26;;;;;;;7.00;2.60;;;;;;;16.48;63.09;101247.97;5016856;28;20080;-73
2022/05/20 01:31:53;;;;;;;7.50;2.83;;;;;;;16.34;63.56;101246.09;5017459;28;20057;-73
2022/05/20 01:34:20;;;;;;;6.75;2.42;;;;;;;16.33;63.71;101257.94;5017039;28;20076;-74
2022/05/20 01:36:47;;;;;;;7.22;2.90;;;;;;;16.37;63.60;101265.53;5017281;28;20410;-74
2022/05/20 01:39:13;;;;;;;11.00;2.80;;;;;;;16.33;64.09;101257.94;5016487;28;20133;-73
2022/05/20 01:42:02;;;;;;;7.85;3.13;;;;;;;16.29;64.04;101268.31;5017372;28;20061;-73
2022/05/20 01:44:59;;;;;;;8.73;3.47;;;;;;;16.25;64.33;101272.41;5017036;28;20469;-73
2022/05/20 01:47:46;;;;;;;8.23;2.67;;;;;;;16.17;64.61;101276.03;5016622;28;20056;-73
2022/05/20 01:50:24;;;;;;;6.20;3.03;;;;;;;16.15;64.96;101285.38;5016960;28;20133;-72
2022/05/20 01:52:57;;;;;;;6.35;3.10;;;;;;;16.14;64.97;101292.66;5016877;28;20078;-73
2022/05/20 01:55:47;;;;;;;8.70;3.40;;;;;;;15.95;65.66;101288.59;5017045;28;20149;-72
2022/05/20 01:58:29;;;;;;;13.10;4.25;;;;;;;15.89;65.66;101294.72;5017486;28;20132;-73
2022/05/20 02:01:00;;;;;;;6.57;4.40;;;;;;;15.85;65.88;101298.00;5017337;28;20564;-73
2022/05/20 02:03:37;;;;;;;9.25;4.57;;;;;;;15.85;65.82;101298.00;5017168;28;20124;-73
2022/05/20 02:06:11;;;;;;;7.55;4.55;;;;;;;15.82;66.13;101296.47;5016501;28;20085;-73
2022/05/20 02:08:42;;;;;;;5.07;3.85;;;;;;;15.91;65.78;101297.25;5017056;28;20103;-73
2022/05/20 02:11:15;;;;;;;;;;;;;;;15.89;65.92;101299.31;5017431;28;20062;-73
2022/05/20 02:13:48;;;;;;;6.78;4.88;;;;;;;15.83;66.16;101300.84;5016890;28;20023;-73
2022/05/20 02:16:22;;;;;;;12.27;6.15;;;;;;;15.81;66.44;101305.63;5017013;28;20100;-73
2022/05/20 02:18:59;;;;;;;8.27;5.00;;;;;;;15.95;65.92;101303.97;5017248;28;20474;-73
2022/05/20 02:21:30;;;;;;;9.77;6.25;;;;;;;15.91;66.32;101299.94;5016680;28;20520;-73
2022/05/20 02:23:59;;;;;;;7.50;5.57;;;;;;;15.90;66.31;101312.63;5017052;28;20084;-73
2022/05/20 02:26:33;;;;;;;10.35;6.22;;;;;;;15.87;66.79;101306.75;5016472;28;20453;-73
2022/05/20 02:29:13;;;;;;;11.10;5.63;;;;;;;15.79;67.07;101302.25;5017427;28;20049;-73
2022/05/20 02:31:49;;;;;;;11.02;6.22;;;;;;;15.81;67.08;101302.06;5016619;28;20077;-73
2022/05/20 02:34:15;;;;;;;8.52;5.82;;;;;;;15.85;66.77;101298.81;5016326;28;20077;-73
2022/05/20 02:36:42;;;;;;;10.02;7.18;;;;;;;15.83;66.70;101300.03;5016973;28;20060;-73
2022/05/20 02:39:15;;;;;;;9.50;6.22;;;;;;;15.84;66.68;101301.69;5017686;28;20105;-73
2022/05/20 02:41:46;;;;;;;10.75;5.78;;;;;;;15.84;66.75;101296.28;5018354;28;20054;-73
2022/05/20 02:44:14;;;;;;;8.80;6.40;;;;;;;15.78;66.97;101294.28;5017366;28;20057;-73
2022/05/20 02:46:43;;;;;;;8.48;6.22;;;;;;;15.76;66.78;101302.59;5017556;28;20046;-73
2022/05/20 02:49:09;;;;;;;8.45;6.97;;;;;;;15.76;66.81;101305.31;5017716;28;20054;-73
2022/05/20 02:51:36;;;;;;;9.93;6.72;;;;;;;15.83;66.66;101305.44;5017946;28;20073;-72
2022/05/20 02:54:04;;;;;;;8.25;5.40;;;;;;;15.77;67.01;101306.16;5017407;28;20137;-74
2022/05/20 02:56:32;;;;;;;10.18;6.00;;;;;;;15.75;67.21;101314.47;5016679;28;20049;-73
2022/05/20 03:04:29;;;;;;;12.55;6.15;;;;;;;15.84;67.04;101328.75;5017398;28;20092;-73
2022/05/20 03:06:56;;;;;;;8.60;6.32;;;;;;;15.81;67.11;101329.09;5015934;28;20050;-73
2022/05/20 03:09:24;;;;;;;8.20;5.78;;;;;;;15.85;67.22;101333.16;5017238;28;20438;-72
2022/05/20 03:11:51;;;;;;;6.63;5.78;;;;;;;15.88;67.20;101327.34;5017027;28;20112;-73
2022/05/20 03:14:20;;;;;;;9.45;6.25;;;;;;;15.87;67.22;101334.63;5016749;28;20054;-72
2022/05/20 03:16:49;;;;;;;11.68;6.22;;;;;;;15.89;67.11;101332.59;5018205;28;20140;-72
2022/05/20 03:19:15;;;;;;;6.38;5.70;;;;;;;15.92;66.92;101331.41;5015948;28;20088;-73
2022/05/20 03:21:42;;;;;;;8.32;5.68;;;;;;;15.75;67.39;101338.81;5015392;28;20050;-73
2022/05/20 03:24:10;;;;;;;8.75;6.18;;;;;;;15.82;67.34;101328.94;5014786;28;20128;-72
2022/05/20 03:26:36;;;;;;;14.02;5.47;;;;;;;15.89;67.03;101329.06;5014726;28;20093;-73
2022/05/20 03:29:05;;;;;;;6.22;5.63;;;;;;;15.79;67.51;101340.13;5015257;28;20475;-73
2022/05/20 03:31:33;;;;;;;9.40;6.50;;;;;;;15.81;67.27;101338.09;5015252;28;20488;-73
2022/05/20 03:34:05;;;;;;;7.65;5.88;;;;;;;15.82;67.36;101344.34;5015440;28;20062;-73
2022/05/20 03:36:34;;;;;;;9.40;6.30;;;;;;;15.84;67.40;101344.97;5014789;28;20056;-74
2022/05/20 03:39:01;;;;;;;6.70;6.07;;;;;;;15.87;67.34;101344.63;5015466;28;20137;-73
2022/05/20 03:41:27;;;;;;;8.70;5.85;;;;;;;15.91;67.43;101348.66;5014332;28;20084;-73
2022/05/20 03:44:01;;;;;;;8.25;5.78;;;;;;;15.93;67.42;101352.88;5014312;28;20482;-73
2022/05/20 03:46:27;;;;;;;8.93;6.45;;;;;;;15.96;67.41;101354.38;5013900;28;20141;-73
2022/05/20 03:48:54;;;;;;;7.95;5.85;;;;;;;15.99;67.17;101356.72;5014240;28;20053;-73
2022/05/20 03:51:20;;;;;;;10.52;5.60;;;;;;;15.81;67.71;101350.75;5014253;28;20056;-73
2022/05/20 03:53:47;;;;;;;10.57;5.88;;;;;;;15.76;67.86;101345.88;5014103;28;20156;-73
2022/05/20 03:56:13;;;;;;;10.05;6.10;;;;;;;15.73;68.11;101343.53;5014010;28;20148;-73
2022/05/20 03:58:39;;;;;;;8.98;6.28;;;;;;;15.84;67.80;101344.97;5014181;28;20050;-73
2022/05/20 04:03:55;;;;;;;7.55;6.05;;;;;;;15.78;67.75;101345.69;5014172;28;20053;-73
2022/05/20 04:06:21;;;;;;;9.80;7.22;;;;;;;15.79;67.84;101350.09;5014487;28;20050;-73
2022/05/20 04:08:48;;;;;;;10.43;6.90;;;;;;;15.56;68.88;101358.97;5013862;28;20053;-73
2022/05/20 04:11:15;;;;;;;8.32;6.90;;;;;;;15.65;68.29;101360.66;5014183;28;20089;-73
2022/05/20 04:13:43;;;;;;;9.25;6.70;;;;;;;15.73;67.97;101361.63;5014027;28;20103;-73
2022/05/20 04:16:12;;;;;;;11.68;6.45;;;;;;;15.78;67.96;101368.19;5013896;28;20435;-72
2022/05/20 04:18:40;;;;;;;10.40;7.03;;;;;;;15.65;68.14;101360.66;5016087;28;20486;-72
2022/05/20 04:21:08;;;;;;;11.63;7.15;;;;;;;15.74;67.63;101366.84;5019558;28;20145;-73
2022/05/20 04:23:35;;;;;;;9.48;6.32;;;;;;;15.84;67.14;101366.63;5018410;28;20501;-73
2022/05/20 04:26:02;;;;;;;8.85;7.10;;;;;;;15.75;67.40;101367.72;5017996;28;20137;-73
2022/05/20 04:28:28;;;;;;;9.90;7.43;;;;;;;15.70;67.60;101363.66;5018238;28;20096;-73
2022/05/20 04:30:58;;;;;;;13.50;7.35;;;;;;;15.82;67.27;101369.53;5018641;28;20133;-73
2022/05/20 04:33:25;;;;;;;13.10;7.57;;;;;;;15.81;67.49;101369.69;5018809;28;20057;-73
2022/05/20 04:35:52;;;;;;;12.35;7.15;;;;;;;15.80;67.20;101373.44;5018152;28;20114;-73
2022/05/20 04:38:19;;;;;;;11.32;8.25;;;;;;;15.84;66.89;101372.03;5018146;28;20382;-73
2022/05/20 04:46:56;;;;;;;12.60;10.07;;;;;;;15.85;66.89;101379.16;5018435;28;20229;-73
2022/05/20 04:49:09;;;;;;;12.30;7.63;;;;;;;15.99;66.51;101391.91;5017758;28;20136;-73
2022/05/20 04:51:40;;;;;;;10.80;7.88;;;;;;;16.08;66.30;101390.81;5017839;28;20494;-73
2022/05/20 04:56:54;;;;;;;12.68;8.18;;;;;;;16.06;66.40;101397.44;5017427;28;20053;-74
2022/05/20 04:59:20;;;;;;;12.60;8.77;;;;;;;15.80;67.41;101395.91;5017950;28;20520;-74
2022/05/20 05:01:48;;;;;;;12.85;8.38;;;;;;;15.81;67.38;101399.44;5018087;28;20141;-74
2022/05/20 05:04:16;;;;;;;13.23;8.57;;;;;;;15.85;67.22;101393.53;5017815;28;20100;-74
2022/05/20 05:06:43;;;;;;;13.48;8.35;;;;;;;15.77;67.57;101403.53;5017212;28;20584;-74
2022/05/20 05:09:09;;;;;;;14.32;8.35;;;;;;;15.84;67.39;101399.94;5017177;28;20434;-74
2022/05/20 05:11:39;;;;;;;11.43;8.90;;;;;;;15.85;67.45;101400.81;5017623;28;20144;-73
2022/05/20 05:14:12;;;;;;;22.65;10.63;;;;;;;15.95;67.06;101402.25;5016768;28;20081;-74
2022/05/20 05:16:39;;;;;;;16.58;9.20;;;;;;;16.04;66.78;101405.72;5017114;28;20058;-74
2022/05/20 05:19:06;;;;;;;13.68;8.80;;;;;;;16.06;66.41;101403.69;5017076;28;20085;-73
2022/05/20 05:21:32;;;;;;;11.05;7.97;;;;;;;16.28;65.80;101412.00;5016767;28;20100;-73
2022/05/20 05:24:00;;;;;;;16.33;8.07;;;;;;;16.34;65.62;101404.00;5017427;28;20140;-74
2022/05/20 05:26:32;;;;;;;10.68;8.07;;;;;;;16.32;65.68;101410.59;5016308;28;20474;-73
2022/05/20 05:28:59;;;;;;;12.73;8.52;;;;;;;16.37;65.49;101405.50;5016169;28;20137;-73
2022/05/20 05:31:26;;;;;;;10.32;8.05;;;;;;;16.43;65.58;101418.28;5017013;28;20402;-73
2022/05/20 05:33:53;;;;;;;17.70;9.32;;;;;;;16.41;65.58;101414.94;5016586;28;20533;-73
2022/05/20 05:36:20;;;;;;;14.68;8.57;;;;;;;16.62;64.11;101415.13;5016664;28;20482;-73
2022/05/20 05:38:46;;;;;;;12.85;8.00;;;;;;;16.65;64.23;101420.19;5016393;28;20558;-73
2022/05/20 05:41:13;;;;;;;17.02;8.98;;;;;;;16.75;63.94;101419.91;5017128;28;20431;-73
2022/05/20 05:43:40;;;;;;;17.30;9.20;;;;;;;16.74;64.48;101423.63;5017037;28;20111;-70
2022/05/20 05:46:06;;;;;;;5.05;2.00;;;;;;;17.33;55.01;101420.13;5017603;28;20554;-70
2022/05/20 05:48:33;;;;;;;12.00;5.50;;;;;;;17.60;57.52;101418.63;5017099;28;20065;-70
2022/05/20 05:51:01;;;;;;;8.38;5.30;;;;;;;17.64;57.60;101424.53;5017441;28;20125;-70
2022/05/20 05:53:28;;;;;;;12.57;6.85;;;;;;;17.77;57.02;101427.41;5017257;28;20486;-70
2022/05/20 05:55:59;;;;;;;11.48;5.68;;;;;;;18.01;56.19;101426.22;5017194;28;20137;-69
2022/05/20 05:58:27;;;;;;;11.13;6.00;;;;;;;17.96;56.66;101443.09;5017358;28;20088;-70
2022/05/20 06:00:55;;;;;;;8.95;6.18;;;;;;;18.03;56.43;101430.44;5016936;28;20077;-69
2022/05/20 06:03:21;;;;;;;10.60;6.65;;;;;;;17.90;57.14;101430.28;5017782;28;20466;-69
2022/05/20 06:05:48;;;;;;;8.13;6.38;;;;;;;17.94;56.75;101433.44;5016857;28;20050;-69
2022/05/20 06:08:16;;;;;;;11.95;7.07;;;;;;;17.97;56.43;101427.63;5016250;28;20133;-69
2022/05/20 06:10:44;;;;;;;11.95;6.32;;;;;;;17.84;56.81;101437.28;5016772;28;20465;-69
2022/05/20 06:13:10;;;;;;;8.73;5.55;;;;;;;17.93;55.89;101435.31;5017072;28;20472;-69
2022/05/20 06:15:38;;;;;;;11.80;6.15;;;;;;;17.95;55.70;101426.97;5016845;28;20544;-69
2022/05/20 06:18:05;;;;;;;6.63;5.32;;;;;;;17.93;55.62;101434.50;5016991;28;20060;-69
2022/05/20 06:20:33;;;;;;;13.38;5.88;;;;;;;17.92;55.43;101432.78;5016882;28;20545;-68
2022/05/20 06:23:01;;;;;;;13.82;5.55;;;;;;;17.97;55.12;101425.75;5016847;28;20057;-69
2022/05/20 06:25:28;;;;;;;10.88;6.40;;;;;;;17.94;55.21;101425.31;5016843;28;20488;-69
2022/05/20 06:28:07;;;;;;;10.38;4.95;;;;;;;18.09;54.59;101432.34;5016216;28;20157;-70
2022/05/20 06:30:33;;;;;;;11.00;6.60;;;;;;;17.91;55.20;101431.13;5016476;28;20513;-69
2022/05/20 06:33:01;;;;;;;9.57;5.55;;;;;;;17.99;54.97;101423.69;5016133;28;20401;-69
2022/05/20 06:40:59;;;;;;;7.72;4.15;;;;;;;17.93;54.68;101434.50;5014872;28;20141;-70
2022/05/20 06:43:26;;;;;;;7.63;5.97;;;;;;;17.87;54.09;101427.94;5016162;28;20096;-69
2022/05/20 06:45:58;;;;;;;8.93;5.35;;;;;;;18.00;53.44;101425.38;5016156;28;20482;-70
2022/05/20 06:48:48;;;;;;;8.30;4.20;;;;;;;18.03;53.39;101425.00;5015538;28;20050;-70
2022/05/20 06:51:17;;;;;;;16.20;5.97;;;;;;;18.16;52.52;101424.31;5016071;28;20125;-70
2022/05/20 06:53:45;;;;;;;8.25;3.53;;;;;;;18.44;51.65;101420.81;5015861;28;20073;-70
2022/05/20 06:56:12;;;;;;;10.48;4.50;;;;;;;18.54;50.68;101424.88;5015702;28;20132;-69
2022/05/20 06:58:39;;;;;;;10.90;3.92;;;;;;;18.71;50.45;101422.72;5016394;28;20058;-71
2022/05/20 07:01:05;;;;;;;12.68;4.78;;;;;;;18.91;49.53;101422.88;5000138;28;20510;-70
2022/05/20 07:03:32;;;;;;;6.00;3.22;;;;;;;18.86;49.67;101416.34;5015968;28;20137;-71
2022/05/20 07:05:59;;;;;;;9.68;3.00;;;;;;;19.21;48.19;101422.69;5016001;28;20069;-71
2022/05/20 07:08:25;;;;;;;6.00;3.47;;;;;;;19.18;48.08;101414.91;5016493;28;20558;-71
2022/05/20 07:10:52;;;;;;;7.70;3.90;;;;;;;19.06;48.55;101416.50;5015756;28;20137;-71
2022/05/20 07:13:37;;;;;;;8.35;3.40;;;;;;;18.84;48.91;101421.97;5015951;28;20085;-70
2022/05/20 07:16:04;;;;;;;7.15;3.50;;;;;;;19.20;48.21;101427.25;5016307;28;20057;-70
2022/05/20 07:18:31;;;;;;;10.93;3.50;;;;;;;19.80;46.49;101422.13;5016281;28;20077;-70
2022/05/20 07:20:58;;;;;;;7.05;3.15;;;;;;;19.77;46.52;101425.28;5016150;28;20049;-70
2022/05/20 07:23:28;;;;;;;5.50;3.17;;;;;;;19.60;46.83;101432.06;5015631;28;20050;-70
2022/05/20 07:25:55;;;;;;;9.48;4.07;;;;;;;19.77;46.49;101416.28;5014936;28;20148;-71
2022/05/20 07:28:22;;;;;;;5.53;3.10;;;;;;;20.09;45.31;101418.22;5015446;28;20074;-71
2022/05/20 07:30:48;;;;;;;6.18;3.00;;;;;;;19.66;46.18;101406.78;5015841;28;20085;-72
2022/05/20 07:33:14;;;;;;;6.60;3.60;;;;;;;19.70;46.11;101410.78;5015673;28;20478;-73
2022/05/20 07:35:41;;;;;;;10.13;3.42;;;;;;;19.85;45.63;101418.78;5015911;28;20478;-72
2022/05/20 07:38:08;;;;;;;7.43;3.30;;;;;;;19.83;45.50;101415.44;5015595;28;20050;-71
2022/05/20 07:40:35;;;;;;;6.00;3.40;;;;;;;19.64;45.65;101400.69;5015769;28;20137;-71
2022/05/20 07:43:08;;;;;;;6.53;3.58;;;;;;;19.61;45.80;101415.53;5016023;28;20061;-71
2022/05/20 07:45:34;;;;;;;8.55;3.53;;;;;;;20.00;44.98;101413.16;5015617;28;20045;-71
2022/05/20 07:48:01;;;;;;;4.63;2.67;;;;;;;19.84;44.90;101407.06;5015229;28;20136;-71
2022/05/20 07:50:28;;;;;;;3.72;2.53;;;;;;;20.20;44.69;101406.72;5015379;28;20046;-71
2022/05/20 07:55:45;;;;;;;6.70;3.22;;;;;;;20.34;43.83;101409.44;5013936;28;20473;-71
2022/05/20 07:58:15;;;;;;;7.38;3.55;;;;;;;20.99;42.17;101413.22;5014252;28;20088;-71
2022/05/20 08:00:41;;;;;;;12.93;3.03;;;;;;;21.28;41.51;101413.81;5014375;28;20086;-71
2022/05/20 08:03:11;;;;;;;5.32;2.80;;;;;;;21.14;41.78;101422.03;5014617;28;20401;-71
2022/05/20 08:05:37;;;;;;;5.03;2.20;;;;;;;20.82;42.51;101415.56;5014521;28;20081;-71
2022/05/20 08:08:06;;;;;;;4.93;2.10;;;;;;;21.24;41.55;101413.41;5013470;28;20060;-72
2022/05/20 08:10:35;;;;;;;5.70;2.50;;;;;;;20.87;42.00;101417.63;5013941;28;20046;-71
2022/05/20 08:13:03;;;;;;;3.00;2.30;;;;;;;21.03;41.18;101409.03;5014686;28;20124;-72
2022/05/20 08:15:31;;;;;;;3.60;2.15;;;;;;;20.83;42.06;101405.47;5014003;28;20542;-72
2022/05/20 08:17:58;;;;;;;5.80;3.13;;;;;;;20.83;42.17;101416.41;5014774;28;20176;-72
2022/05/20 08:20:27;;;;;;;8.18;2.72;;;;;;;20.92;41.72;101405.06;5014101;28;20470;-72
2022/05/20 08:22:54;;;;;;;6.68;2.60;;;;;;;20.87;41.86;101404.00;5013960;28;20486;-71
2022/05/20 08:25:24;;;;;;;6.03;2.63;;;;;;;20.91;42.06;101402.56;5013939;28;20474;-70
2022/05/20 08:27:51;;;;;;;6.45;2.90;;;;;;;20.77;42.16;101395.44;5013259;28;20057;-71
2022/05/20 08:30:22;;;;;;;4.15;2.38;;;;;;;20.97;41.34;101395.38;5013974;28;20133;-72
2022/05/20 08:32:49;;;;;;;;;;;;;;;20.73;41.42;101397.75;5014039;28;20057;-73
2022/05/20 08:35:17;;;;;;;9.48;2.92;;;;;;;21.15;40.65;101392.88;5014054;28;20024;-73
2022/05/20 08:37:46;;;;;;;7.35;2.15;;;;;;;21.11;40.82;101405.25;5014004;28;20054;-73
2022/05/20 08:40:20;;;;;;;6.60;3.25;;;;;;;21.91;39.14;101396.75;5014005;28;20053;-74
2022/05/20 08:42:48;;;;;;;4.72;2.38;;;;;;;21.52;39.53;101396.72;5014067;28;20133;-72
2022/05/20 08:45:19;;;;;;;2.65;1.90;;;;;;;21.19;40.29;101410.50;5014094;28;20069;-74
2022/05/20 08:47:50;;;;;;;8.48;2.90;;;;;;;21.52;39.59;101398.59;5014012;28;20050;-73
2022/05/20 08:50:41;;;;;;;4.53;2.28;;;;;;;21.01;40.61;101400.22;5013850;28;20140;-74
2022/05/20 08:53:15;;;;;;;4.45;2.03;;;;;;;21.90;39.10;101384.16;5004742;28;20133;-73
2022/05/20 08:55:46;;;;;;;3.15;2.10;;;;;;;21.66;39.72;101385.72;5015502;28;20453;-74
2022/05/20 08:58:18;;;;;;;6.60;2.40;;;;;;;21.12;40.48;101394.13;5015646;28;20141;-74
2022/05/20 09:00:45;;;;;;;5.68;2.28;;;;;;;20.94;40.46;101396.69;4981522;28;20085;-75
2022/05/20 09:03:12;;;;;;;5.93;2.40;;;;;;;21.23;39.71;101395.38;5015546;28;20149;-74
2022/05/20 09:05:42;;;;;;;6.22;2.38;;;;;;;21.50;38.67;101393.38;5001328;28;20097;-76
2022/05/20 09:08:26;;;;;;;8.65;2.30;;;;;;;21.34;39.53;101380.22;5018941;28;20445;-76
2022/05/20 09:10:58;;;;;;;6.30;2.15;;;;;;;21.83;38.29;101379.56;5017674;28;20041;-73
2022/05/20 09:16:34;;;;;;;5.95;2.30;;;;;;;21.65;38.77;101376.72;5017881;28;20144;-73
2022/05/20 09:19:25;;;;;;;7.72;2.55;;;;;;;21.38;38.91;101368.63;5017735;28;20050;-73
2022/05/20 09:22:11;;;;;;;8.70;2.47;;;;;;;21.50;38.58;101371.53;5018297;28;20073;-74
2022/05/20 09:24:42;;;;;;;7.25;2.92;;;;;;;21.90;37.35;101360.41;5018751;28;20490;-74
2022/05/20 09:27:12;;;;;;;4.38;2.10;;;;;;;22.17;37.34;101361.06;5017593;28;20096;-73
2022/05/20 09:29:44;;;;;;;7.38;2.30;;;;;;;22.81;36.03;101359.06;5018046;28;20132;-74
2022/05/20 09:32:25;;;;;;;3.75;2.05;;;;;;;22.06;36.62;101361.78;5018227;28;20042;-74
2022/05/20 09:35:02;;;;;;;6.00;2.00;;;;;;;22.42;35.74;101357.50;5019130;28;20049;-74
2022/05/20 09:37:32;;;;;;;4.00;1.88;;;;;;;22.52;35.83;101349.66;5017944;28;20049;-74
2022/05/20 09:40:19;;;;;;;6.03;2.13;;;;;;;21.93;36.79;101353.69;5017946;28;20050;-76
2022/05/20 09:43:28;;;;;;;7.78;2.75;;;;;;;22.68;35.84;101346.34;5017362;28;20281;-73
2022/05/20 09:45:57;;;;;;;7.45;2.58;;;;;;;22.12;36.68;101340.91;5017191;28;20060;-73
2022/05/20 09:48:49;;;;;;;5.18;2.42;;;;;;;21.98;36.93;101337.44;5017549;28;20144;-73
2022/05/20 09:51:34;;;;;;;5.63;2.13;;;;;;;22.20;36.86;101340.66;5017234;28;20125;-74
2022/05/20 09:54:21;;;;;;;8.32;2.13;;;;;;;22.62;36.30;101328.09;5016420;28;20058;-72
2022/05/20 09:57:35;;;;;;;4.95;2.20;;;;;;;23.00;35.06;101319.69;5016014;28;20092;-74
2022/05/20 10:00:32;;;;;;;6.32;1.85;;;;;;;22.46;36.43;101324.00;4936563;29;20052;-73
2022/05/20 10:03:12;;;;;;;6.32;2.22;;;;;;;22.63;36.13;101323.47;4935536;29;20051;-73
2022/05/20 10:05:50;;;;;;;10.80;2.35;;;;;;;22.31;36.14;101321.63;4936485;29;20404;-73
2022/05/20 10:08:26;;;;;;;6.45;2.15;;;;;;;21.81;36.75;101310.69;4936317;29;20142;-73
2022/05/20 10:11:01;;;;;;;7.00;2.47;;;;;;;21.83;37.02;101319.47;4936168;29;20146;-73
2022/05/20 10:13:53;;;;;;;7.40;2.63;;;;;;;22.76;34.42;101324.16;4936662;29;20086;-74
2022/05/20 10:16:40;;;;;;;6.93;2.33;;;;;;;23.45;32.95;101322.09;4937253;29;20401;-74
2022/05/20 10:19:21;;;;;;;5.82;2.10;;;;;;;23.38;32.95;101309.56;4936591;29;20051;-74
2022/05/20 10:22:10;;;;;;;4.75;2.00;;;;;;;22.99;34.00;101318.03;4936232;29;20079;-74
2022/05/20 10:25:00;;;;;;;5.60;2.00;;;;;;;23.33;32.99;101306.66;4936163;29;20460;-73
2022/05/20 10:27:53;;;;;;;6.75;3.00;;;;;;;22.34;35.06;101303.94;4936430;29;20142;-74
2022/05/20 10:33:13;;;;;;;5.05;1.80;;;;;;;22.22;34.70;101297.53;5015870;28;20140;-72
2022/05/20 10:36:07;;;;;;;7.38;2.28;;;;;;;22.85;32.70;101293.78;5015690;28;20149;-73
2022/05/20 10:38:54;;;;;;;6.45;2.35;;;;;;;23.19;32.85;101290.44;5016097;28;20050;-73
2022/05/20 10:41:45;;;;;;;2.92;1.58;;;;;;;22.38;33.90;101290.66;5015749;28;20473;-73
2022/05/20 10:48:36;;;;;;;7.35;2.20;;;;;;;21.80;34.71;101292.59;5015547;28;20056;-74
2022/05/20 10:50:50;;;;;;;5.28;1.60;;;;;;;22.06;33.76;101285.28;5009178;28;20581;-74
2022/05/20 10:53:16;;;;;;;2.78;1.70;;;;;;;21.84;34.49;101290.28;5016687;28;20149;-73
2022/05/20 10:56:03;;;;;;;4.15;1.60;;;;;;;21.34;35.25;101281.97;5016806;28;20060;-73
2022/05/20 10:59:09;;;;;;;5.28;1.90;;;;;;;21.16;35.98;101288.13;5015600;28;20053;-73
2022/05/20 11:01:45;;;;;;;5.55;1.80;;;;;;;21.04;36.41;101278.91;5017316;28;20041;-73
2022/05/20 11:04:38;;;;;;;4.00;1.80;;;;;;;21.02;36.03;101273.69;5016243;28;20482;-73
2022/05/20 11:07:33;;;;;;;3.38;1.73;;;;;;;20.87;36.29;101271.22;5016449;28;20383;-72
2022/05/20 11:10:29;;;;;;;2.72;1.60;;;;;;;21.24;35.59;101267.94;5015663;28;20136;-73
2022/05/20 11:13:26;;;;;;;7.80;1.70;;;;;;;21.45;35.47;101258.59;5016042;28;20054;-74
2022/05/20 11:16:00;;;;;;;5.43;1.95;;;;;;;21.92;34.72;101245.47;5015765;28;20144;-73
2022/05/20 11:18:50;;;;;;;5.22;2.28;;;;;;;22.26;33.75;101239.47;5015649;28;20520;-73
2022/05/20 11:21:41;;;;;;;9.48;2.25;;;;;;;22.56;33.63;101238.75;5015334;28;20050;-74
2022/05/20 11:24:26;;;;;;;9.23;2.20;;;;;;;23.01;32.45;101238.41;5014734;28;20136;-75
2022/05/20 11:27:09;;;;;;;4.68;1.80;;;;;;;22.41;34.08;101230.06;5013982;28;20501;-72
2022/05/20 11:30:04;;;;;;;4.00;1.83;;;;;;;22.11;34.70;101222.59;5014673;28;20140;-72
2022/05/20 11:32:53;;;;;;;5.60;1.42;;;;;;;22.32;34.19;101227.66;4984778;28;20551;-72
2022/05/20 11:35:37;;;;;;;7.88;1.85;;;;;;;22.62;32.42;101226.91;5014261;28;20060;-73
2022/05/20 11:38:41;;;;;;;5.80;1.50;;;;;;;23.21;31.86;101216.28;5015170;28;20140;-72
2022/05/20 11:41:14;;;;;;;4.18;1.60;;;;;;;22.10;33.61;101210.00;5005837;28;20070;-73
2022/05/20 11:44:02;;;;;;;5.70;1.58;;;;;;;21.61;34.52;101206.19;5016869;28;20077;-72
2022/05/20 11:46:52;;;;;;;4.80;1.80;;;;;;;21.31;35.05;101206.81;5015511;28;20569;-72
2022/05/20 11:49:30;;;;;;;4.68;1.70;;;;;;;21.37;34.93;101200.47;5017138;28;20081;-72
2022/05/20 11:52:17;;;;;;;5.47;1.73;;;;;;;21.61;33.15;101196.09;5016852;28;20045;-71
2022/05/20 11:54:55;;;;;;;1.65;1.23;;;;;;;21.96;32.17;101183.88;5017652;28;20062;-71
2022/05/20 11:57:44;;;;;;;3.25;1.75;;;;;;;22.21;32.32;101201.03;5017061;28;20089;-72
2022/05/20 12:00:14;;;;;;;6.75;1.75;;;;;;;22.09;33.44;101181.84;5018339;28;20045;-73
2022/05/20 12:02:46;;;;;;;2.88;1.60;;;;;;;22.30;32.70;101177.00;5018365;28;20046;-73
2022/05/20 12:05:18;;;;;;;8.27;1.90;;;;;;;22.51;32.77;101175.72;5017163;28;20454;-70
2022/05/20 12:07:44;;;;;;;;;;;;;;;22.43;33.35;101171.38;5017092;28;20460;-70
2022/05/20 12:10:32;;;;;;;5.50;1.63;;;;;;;22.29;33.85;101154.31;5016476;28;19971;-71
2022/05/20 12:13:14;;;;;;;8.15;1.58;;;;;;;22.22;34.32;101148.06;5018793;28;20470;-71
2022/05/20 12:16:09;;;;;;;7.22;1.90;;;;;;;22.38;32.45;101145.78;4998632;28;20475;-71
2022/05/20 12:24:37;;;;;;;2.08;1.00;;;;;;;22.31;31.18;101138.50;5016261;28;20132;-71
2022/05/20 12:27:11;;;;;;;5.88;1.23;;;;;;;22.28;31.68;101129.91;5016499;28;20133;-70
2022/05/20 12:29:37;;;;;;;4.78;1.27;;;;;;;22.34;29.69;101137.22;5016884;28;20109;-71
2022/05/20 12:32:16;;;;;;;4.93;1.50;;;;;;;22.30;32.44;101117.69;5016679;28;20053;-71